createdAt,value
2019-01-21T00:01:08.426Z,7.10
2019-01-21T00:03:38.066Z,5.27
2019-01-21T00:06:07.717Z,5.97
2019-01-21T00:08:37.295Z,6.47
2019-01-21T00:11:06.946Z,4.47
2019-01-21T00:13:36.261Z,4.93
2019-01-21T00:16:05.657Z,4.83
2019-01-21T00:18:35.020Z,5.10
2019-01-21T00:21:04.442Z,5.63
2019-01-21T00:23:34.105Z,3.93
2019-01-21T00:26:03.757Z,5.23
2019-01-21T00:28:33.430Z,6.83
2019-01-21T00:31:03.108Z,6.47
2019-01-21T00:33:33.052Z,5.73
2019-01-21T00:36:02.866Z,6.10
2019-01-21T00:38:33.055Z,5.33
2019-01-21T00:41:02.968Z,5.67
2019-01-21T00:43:33.190Z,7.03
2019-01-21T00:46:03.208Z,6.40
2019-01-21T00:48:33.019Z,5.90
2019-01-21T00:51:02.870Z,6.23
2019-01-21T00:53:33.170Z,5.80
2019-01-21T00:56:03.496Z,4.37
2019-01-21T00:58:33.605Z,6.40
2019-01-21T01:01:03.839Z,4.80
2019-01-21T01:03:33.608Z,4.83
2019-01-21T01:06:03.865Z,5.43
2019-01-21T01:08:33.875Z,6.23
2019-01-21T01:11:03.996Z,4.73
2019-01-21T01:13:34.432Z,6.60
2019-01-21T01:16:05.161Z,5.83
2019-01-21T01:18:35.076Z,5.57
2019-01-21T01:21:05.499Z,5.83
2019-01-21T01:23:35.422Z,4.53
2019-01-21T01:26:07.094Z,5.37
2019-01-21T01:28:38.029Z,5.50
2019-01-21T01:31:07.845Z,5.07
2019-01-21T01:33:38.767Z,5.77
2019-01-21T01:36:08.607Z,5.70
2019-01-21T01:38:39.310Z,4.50
2019-01-21T01:41:09.021Z,4.57
2019-01-21T01:43:39.039Z,4.47
2019-01-21T01:46:08.852Z,6.67
2019-01-21T01:48:38.761Z,4.93
2019-01-21T01:51:08.896Z,5.15
2019-01-21T01:53:39.216Z,5.37
2019-01-21T01:56:09.322Z,6.03
2019-01-21T01:58:38.990Z,4.90
2019-01-21T02:01:08.719Z,5.77
2019-01-21T02:03:38.561Z,5.77
2019-01-21T02:06:08.631Z,5.60
2019-01-21T02:08:40.547Z,5.37
2019-01-21T02:11:10.551Z,4.77
2019-01-21T02:13:40.880Z,4.87
2019-01-21T02:16:11.107Z,5.10
2019-01-21T02:18:41.220Z,6.08
2019-01-21T02:21:12.568Z,5.40
2019-01-21T02:23:44.233Z,4.85
2019-01-21T02:26:21.844Z,5.90
2019-01-21T02:28:57.280Z,6.33
2019-01-21T02:32:19.915Z,5.13
2019-01-21T02:35:16.205Z,5.43
2019-01-21T02:38:41.769Z,4.47
2019-01-21T02:41:28.266Z,4.10
2019-01-21T02:44:11.733Z,5.00
2019-01-21T02:47:12.110Z,5.37
2019-01-21T02:50:36.831Z,4.47
2019-01-21T02:53:37.160Z,5.28
2019-01-21T02:56:38.486Z,5.47
2019-01-21T02:59:37.098Z,4.63
2019-01-21T03:02:24.400Z,5.35
2019-01-21T03:05:16.596Z,3.27
2019-01-21T03:08:26.314Z,5.05
2019-01-21T03:11:40.260Z,4.70
2019-01-21T03:14:24.427Z,5.22
2019-01-21T03:17:25.026Z,5.25
2019-01-21T03:20:19.975Z,4.70
2019-01-21T03:23:19.505Z,5.10
2019-01-21T03:26:17.625Z,4.90
2019-01-21T03:29:26.866Z,3.72
2019-01-21T03:32:48.607Z,4.60
2019-01-21T03:35:55.118Z,4.22
2019-01-21T03:38:52.011Z,6.30
2019-01-21T03:41:49.786Z,4.62
2019-01-21T03:44:52.772Z,4.17
2019-01-21T03:47:44.780Z,4.60
2019-01-21T03:50:51.282Z,4.50
2019-01-21T03:53:51.818Z,4.80
2019-01-21T03:57:08.220Z,5.95
2019-01-21T04:00:27.893Z,4.17
2019-01-21T04:03:59.765Z,6.25
2019-01-21T04:06:57.166Z,2.95
2019-01-21T04:10:10.723Z,3.77
2019-01-21T04:13:17.235Z,6.08
2019-01-21T04:16:14.395Z,5.80
2019-01-21T04:19:19.436Z,5.30
2019-01-21T04:22:29.924Z,5.03
2019-01-21T04:25:29.193Z,5.28
2019-01-21T04:28:26.863Z,5.20
2019-01-21T04:31:58.934Z,6.80
2019-01-21T04:35:17.287Z,4.05
2019-01-21T04:38:40.344Z,5.12
2019-01-21T04:41:23.415Z,4.10
2019-01-21T04:43:50.924Z,4.80
2019-01-21T04:47:04.469Z,6.37
2019-01-21T04:50:09.618Z,7.20
2019-01-21T04:52:53.619Z,5.40
2019-01-21T04:55:49.178Z,3.92
2019-01-21T04:59:11.883Z,4.33
2019-01-21T05:02:24.376Z,4.20
2019-01-21T05:05:28.119Z,5.30
2019-01-21T05:08:34.369Z,5.55
2019-01-21T05:12:09.218Z,4.70
2019-01-21T05:15:05.303Z,6.15
2019-01-21T05:18:14.778Z,5.67
2019-01-21T05:21:24.049Z,5.33
2019-01-21T05:24:36.547Z,3.55
2019-01-21T05:28:14.536Z,4.78
2019-01-21T05:31:03.204Z,4.60
2019-01-21T05:33:55.638Z,3.55
2019-01-21T05:36:52.388Z,4.78
2019-01-21T05:39:48.836Z,4.95
2019-01-21T05:43:16.683Z,4.83
2019-01-21T05:46:33.186Z,5.20
2019-01-21T05:49:48.660Z,4.85
2019-01-21T05:52:53.442Z,3.62
2019-01-21T05:55:48.491Z,3.90
2019-01-21T05:58:53.783Z,4.00
2019-01-21T06:02:03.825Z,5.62
2019-01-21T06:05:07.278Z,3.70
2019-01-21T06:08:12.616Z,5.05
2019-01-21T06:11:10.869Z,5.92
2019-01-21T06:14:24.914Z,4.10
2019-01-21T06:17:22.827Z,3.55
2019-01-21T06:20:23.784Z,3.67
2019-01-21T06:23:40.346Z,6.50
2019-01-21T06:26:41.854Z,5.37
2019-01-21T06:29:42.883Z,4.53
2019-01-21T06:32:52.199Z,4.00
2019-01-21T06:35:43.232Z,3.87
2019-01-21T06:39:02.610Z,4.30
2019-01-21T06:42:21.981Z,2.85
2019-01-21T06:45:25.431Z,4.78
2019-01-21T06:48:38.039Z,5.65
2019-01-21T06:52:00.693Z,3.62
2019-01-21T06:55:18.128Z,4.15
2019-01-21T06:58:43.591Z,4.33
2019-01-21T07:01:36.864Z,4.12
2019-01-21T07:04:36.767Z,4.55
2019-01-21T07:07:28.614Z,6.67
2019-01-21T07:10:40.631Z,3.42
2019-01-21T07:13:43.418Z,3.87
2019-01-21T07:16:34.157Z,5.90
2019-01-21T07:19:34.686Z,4.90
2019-01-21T07:22:28.289Z,4.30
2019-01-21T07:25:35.045Z,2.95
2019-01-21T07:28:20.015Z,4.50
2019-01-21T07:31:39.598Z,3.95
2019-01-21T07:34:48.420Z,4.53
2019-01-21T07:38:10.261Z,5.08
2019-01-21T07:41:02.389Z,4.62
2019-01-21T07:44:17.951Z,4.37
2019-01-21T07:47:32.640Z,5.42
2019-01-21T07:50:48.053Z,4.60
2019-01-21T07:53:48.598Z,4.33
2019-01-21T07:56:48.759Z,5.17
2019-01-21T07:59:53.768Z,4.60
2019-01-21T08:03:07.382Z,3.70
2019-01-21T08:06:07.682Z,4.87
2019-01-21T08:09:13.877Z,5.78
2019-01-21T08:11:57.273Z,5.80
2019-01-21T08:15:00.780Z,6.22
2019-01-21T08:18:14.117Z,6.35
2019-01-21T08:21:05.301Z,6.10
2019-01-21T08:24:01.486Z,4.62
2019-01-21T08:26:58.510Z,6.28
2019-01-21T08:29:48.527Z,7.53
2019-01-21T08:32:45.214Z,7.22
2019-01-21T08:35:52.585Z,6.20
2019-01-21T08:38:57.561Z,6.17
2019-01-21T08:42:00.334Z,7.15
2019-01-21T08:45:16.988Z,7.20
2019-01-21T08:48:38.564Z,7.40
2019-01-21T08:51:39.747Z,6.22
2019-01-21T08:54:44.671Z,7.65
2019-01-21T08:57:48.366Z,5.70
2019-01-21T09:00:45.395Z,7.15
2019-01-21T09:04:07.885Z,5.10
2019-01-21T09:07:00.644Z,5.75
2019-01-21T09:09:46.415Z,8.48
2019-01-21T09:12:55.663Z,7.03
2019-01-21T09:16:03.041Z,5.62
2019-01-21T09:19:19.853Z,4.17
2019-01-21T09:22:39.038Z,7.75
2019-01-21T09:25:45.969Z,6.95
2019-01-21T09:28:56.599Z,6.70
2019-01-21T09:32:22.411Z,7.28
2019-01-21T09:35:33.072Z,7.80
2019-01-21T09:38:42.487Z,8.40
2019-01-21T09:42:01.325Z,7.83
2019-01-21T09:44:52.931Z,9.60
2019-01-21T09:47:20.628Z,8.80
2019-01-21T09:49:50.029Z,7.60
2019-01-21T09:52:20.754Z,5.33
2019-01-21T09:54:50.663Z,8.07
2019-01-21T09:57:25.916Z,11.37
2019-01-21T09:59:59.816Z,7.60
2019-01-21T10:02:38.159Z,7.17
2019-01-21T10:05:11.786Z,9.60
2019-01-21T10:08:43.360Z,7.00
2019-01-21T10:11:52.602Z,7.33
2019-01-21T10:15:12.223Z,6.47
2019-01-21T10:18:14.315Z,9.40
2019-01-21T10:21:13.017Z,10.40
2019-01-21T10:24:08.936Z,6.23
2019-01-21T10:27:18.362Z,7.60
2019-01-21T10:30:27.634Z,8.00
2019-01-21T10:33:40.862Z,7.63
2019-01-21T10:36:50.294Z,8.07
2019-01-21T10:40:07.933Z,8.60
2019-01-21T10:43:07.027Z,9.23
2019-01-21T10:46:04.903Z,9.07
2019-01-21T10:49:05.225Z,7.00
2019-01-21T10:52:31.255Z,7.87
2019-01-21T10:55:41.608Z,7.43
2019-01-21T10:58:36.012Z,7.77
2019-01-21T11:01:41.486Z,7.07
2019-01-21T11:04:40.056Z,7.10
2019-01-21T11:07:53.479Z,8.77
2019-01-21T11:10:54.223Z,9.57
2019-01-21T11:14:01.615Z,6.97
2019-01-21T11:17:04.705Z,9.07
2019-01-21T11:20:33.395Z,6.70
2019-01-21T11:23:50.419Z,8.53
2019-01-21T11:27:18.903Z,8.30
2019-01-21T11:30:17.688Z,8.50
2019-01-21T11:33:19.053Z,7.10
2019-01-21T11:36:26.756Z,6.77
2019-01-21T11:39:39.065Z,7.07
2019-01-21T11:43:11.332Z,5.23
2019-01-21T11:46:30.708Z,8.13
2019-01-21T11:49:40.972Z,6.80
2019-01-21T11:52:27.034Z,7.47
2019-01-21T11:55:59.039Z,6.73
2019-01-21T11:59:06.660Z,8.10
2019-01-21T12:02:20.272Z,7.03
2019-01-21T12:05:11.926Z,4.93
2019-01-21T12:07:59.247Z,6.80
2019-01-21T12:11:09.212Z,6.87
2019-01-21T12:14:05.717Z,6.83
2019-01-21T12:17:11.983Z,7.90
2019-01-21T12:20:17.405Z,7.37
2019-01-21T12:23:45.916Z,7.30
2019-01-21T12:26:59.552Z,7.90
2019-01-21T12:29:53.432Z,6.10
2019-01-21T12:32:55.091Z,7.40
2019-01-21T12:35:39.768Z,7.40
2019-01-21T12:38:46.097Z,7.00
2019-01-21T12:41:57.355Z,8.23
2019-01-21T12:45:13.196Z,7.10
2019-01-21T12:48:04.417Z,6.70
2019-01-21T12:51:06.132Z,5.80
2019-01-21T12:54:09.647Z,5.87
2019-01-21T12:57:15.886Z,6.10
2019-01-21T13:00:20.262Z,6.37
2019-01-21T13:03:12.071Z,4.50
2019-01-21T13:06:11.631Z,3.57
2019-01-21T13:09:16.850Z,6.17
2019-01-21T13:12:16.045Z,5.87
2019-01-21T13:15:02.970Z,7.60
2019-01-21T13:18:00.565Z,4.30
2019-01-21T13:21:10.788Z,6.23
2019-01-21T13:24:12.368Z,6.03
2019-01-21T13:27:31.244Z,4.87
2019-01-21T13:30:24.942Z,6.03
2019-01-21T13:33:30.522Z,4.63
2019-01-21T13:36:34.438Z,5.30
2019-01-21T13:39:43.951Z,7.30
2019-01-21T13:42:22.978Z,6.33
2019-01-21T13:45:25.488Z,6.30
2019-01-21T13:48:50.909Z,6.47
2019-01-21T13:51:39.562Z,6.60
2019-01-21T13:55:06.305Z,6.60
2019-01-21T13:58:11.964Z,6.57
2019-01-21T14:00:54.543Z,5.60
2019-01-21T14:04:04.453Z,5.43
2019-01-21T14:07:10.899Z,4.47
2019-01-21T14:10:27.200Z,4.40
2019-01-21T14:13:11.588Z,6.97
2019-01-21T14:15:58.878Z,5.67
2019-01-21T14:18:41.390Z,5.13
2019-01-21T14:21:48.983Z,4.23
2019-01-21T14:25:07.648Z,5.27
2019-01-21T14:28:19.157Z,4.53
2019-01-21T14:31:32.888Z,6.20
2019-01-21T14:34:48.689Z,5.33
2019-01-21T14:38:11.542Z,5.47
2019-01-21T14:41:22.857Z,5.97
2019-01-21T14:44:41.061Z,6.17
2019-01-21T14:48:00.692Z,6.60
2019-01-21T14:51:20.216Z,6.50
2019-01-21T14:54:16.945Z,8.37
2019-01-21T14:57:33.661Z,6.53
2019-01-21T15:00:34.440Z,7.50
2019-01-21T15:03:47.116Z,9.10
2019-01-21T15:06:47.134Z,7.03
2019-01-21T15:09:53.343Z,6.60
2019-01-21T15:13:15.871Z,6.73
2019-01-21T15:16:22.389Z,6.50
2019-01-21T15:19:12.606Z,7.30
2019-01-21T15:22:35.585Z,6.93
2019-01-21T15:25:46.413Z,6.53
2019-01-21T15:28:56.374Z,7.87
2019-01-21T15:31:54.459Z,7.85
2019-01-21T15:34:53.491Z,7.20
2019-01-21T15:37:55.319Z,6.60
2019-01-21T15:41:04.570Z,7.80
2019-01-21T15:43:46.222Z,8.03
2019-01-21T15:46:36.472Z,7.73
2019-01-21T15:49:38.706Z,6.53
2019-01-21T15:52:23.151Z,7.23
2019-01-21T15:55:11.496Z,7.70
2019-01-21T15:58:09.087Z,7.10
2019-01-21T16:01:31.710Z,8.60
2019-01-21T16:04:38.087Z,6.47
2019-01-21T16:07:40.956Z,8.23
2019-01-21T16:10:49.219Z,8.80
2019-01-21T16:13:42.670Z,6.30
2019-01-21T16:17:02.394Z,7.93
2019-01-21T16:19:53.868Z,8.73
2019-01-21T16:23:02.881Z,9.37
2019-01-21T16:25:58.188Z,8.23
2019-01-21T16:29:17.785Z,7.60
2019-01-21T16:32:30.815Z,8.83
2019-01-21T16:35:21.567Z,8.30
2019-01-21T16:38:41.235Z,9.13
2019-01-21T16:41:46.146Z,9.10
2019-01-21T16:44:15.616Z,10.33
2019-01-21T16:46:45.889Z,9.20
2019-01-21T16:49:15.739Z,9.73
2019-01-21T16:51:45.174Z,7.47
2019-01-21T16:54:14.614Z,8.10
2019-01-21T16:56:44.077Z,9.43
2019-01-21T16:59:13.461Z,8.43
2019-01-21T17:01:42.896Z,8.77
2019-01-21T17:04:12.259Z,8.33
2019-01-21T17:06:41.715Z,8.37
2019-01-21T17:09:12.015Z,8.43
2019-01-21T17:11:41.467Z,9.93
2019-01-21T17:14:12.485Z,8.90
2019-01-21T17:16:41.896Z,8.10
2019-01-21T17:19:11.255Z,8.00
2019-01-21T17:21:40.662Z,9.20
2019-01-21T17:24:10.137Z,8.77
2019-01-21T17:26:39.562Z,10.50
2019-01-21T17:29:08.926Z,8.87
2019-01-21T17:31:38.612Z,10.63
2019-01-21T17:34:08.255Z,10.20
2019-01-21T17:36:38.016Z,10.40
2019-01-21T17:39:09.320Z,10.00
2019-01-21T17:41:38.973Z,9.23
2019-01-21T17:44:08.576Z,10.57
2019-01-21T17:46:38.188Z,10.40
2019-01-21T17:49:07.775Z,9.50
2019-01-21T17:51:37.441Z,8.60
2019-01-21T17:54:07.103Z,10.27
2019-01-21T17:56:36.489Z,10.63
2019-01-21T17:59:06.316Z,8.37
2019-01-21T18:01:39.382Z,9.80
2019-01-21T18:04:08.579Z,10.33
2019-01-21T18:06:37.951Z,9.97
2019-01-21T18:09:09.895Z,10.03
2019-01-21T18:11:41.472Z,8.23
2019-01-21T18:14:10.635Z,9.17
2019-01-21T18:16:40.021Z,10.20
2019-01-21T18:19:09.465Z,8.80
2019-01-21T18:21:40.313Z,8.13
2019-01-21T18:24:10.111Z,8.10
2019-01-21T18:26:39.568Z,9.60
2019-01-21T18:29:09.133Z,8.00
2019-01-21T18:31:38.945Z,8.67
2019-01-21T18:34:08.619Z,7.83
2019-01-21T18:36:38.303Z,9.70
2019-01-21T18:39:11.740Z,9.90
2019-01-21T18:41:41.303Z,9.17
2019-01-21T18:44:10.739Z,8.40
2019-01-21T18:46:40.148Z,10.47
2019-01-21T18:49:09.594Z,7.57
2019-01-21T18:51:39.074Z,9.73
2019-01-21T18:54:08.757Z,8.50
2019-01-21T18:56:38.299Z,10.60
2019-01-21T18:59:07.980Z,9.10
2019-01-21T19:01:37.649Z,9.63
2019-01-21T19:04:07.336Z,7.50
2019-01-21T19:06:36.943Z,8.53
2019-01-21T19:09:09.063Z,6.80
2019-01-21T19:11:38.620Z,9.43
2019-01-21T19:14:08.261Z,7.43
2019-01-21T19:16:37.860Z,7.90
2019-01-21T19:19:07.279Z,7.23
2019-01-21T19:21:36.665Z,7.90
2019-01-21T19:24:06.631Z,7.93
2019-01-21T19:26:36.148Z,7.77
2019-01-21T19:29:05.846Z,8.77
2019-01-21T19:31:35.499Z,7.60
2019-01-21T19:34:05.445Z,7.70
2019-01-21T19:36:35.098Z,9.43
2019-01-21T19:39:06.530Z,7.27
2019-01-21T19:41:36.170Z,8.17
2019-01-21T19:44:05.861Z,9.60
2019-01-21T19:46:35.505Z,11.37
2019-01-21T19:49:05.260Z,9.53
2019-01-21T19:51:34.693Z,9.30
2019-01-21T19:54:04.364Z,9.37
2019-01-21T19:56:34.231Z,8.97
2019-01-21T19:59:03.919Z,8.97
2019-01-21T20:01:33.593Z,7.47
2019-01-21T20:04:02.971Z,7.13
2019-01-21T20:06:32.444Z,6.87
2019-01-21T20:09:02.085Z,10.00
2019-01-21T20:11:34.891Z,8.93
2019-01-21T20:14:03.119Z,8.70
2019-01-21T20:16:32.767Z,11.10
2019-01-21T20:19:02.337Z,9.60
2019-01-21T20:21:31.991Z,8.17
2019-01-21T20:24:01.647Z,8.90
2019-01-21T20:26:31.287Z,11.40
2019-01-21T20:29:00.984Z,8.87
2019-01-21T20:31:30.612Z,10.30
2019-01-21T20:34:00.193Z,8.93
2019-01-21T20:36:29.843Z,8.63
2019-01-21T20:38:59.397Z,5.67
2019-01-21T20:41:28.982Z,7.50
2019-01-21T20:43:58.589Z,8.47
2019-01-21T20:46:28.096Z,10.20
2019-01-21T20:48:57.725Z,13.23
2019-01-21T20:51:27.127Z,11.00
2019-01-21T20:53:56.509Z,9.80
2019-01-21T20:56:25.922Z,10.63
2019-01-21T20:58:55.309Z,12.53
2019-01-21T21:01:24.759Z,10.27
2019-01-21T21:03:54.126Z,7.60
2019-01-21T21:06:23.520Z,9.57
2019-01-21T21:08:52.906Z,11.73
2019-01-21T21:11:22.315Z,9.37
2019-01-21T21:13:52.156Z,7.90
2019-01-21T21:16:21.913Z,7.27
2019-01-21T21:18:51.576Z,7.67
2019-01-21T21:21:21.025Z,6.27
2019-01-21T21:23:50.473Z,5.10
2019-01-21T21:26:19.885Z,6.80
2019-01-21T21:28:49.284Z,9.33
2019-01-21T21:31:19.092Z,7.30
2019-01-21T21:33:48.496Z,9.37
2019-01-21T21:36:18.024Z,9.50
2019-01-21T21:38:47.880Z,7.80
2019-01-21T21:41:17.491Z,8.60
2019-01-21T21:43:47.120Z,8.87
2019-01-21T21:46:16.718Z,7.20
2019-01-21T21:48:47.114Z,8.63
2019-01-21T21:51:17.107Z,8.30
2019-01-21T21:53:46.695Z,7.83
2019-01-21T21:56:16.570Z,8.07
2019-01-21T21:58:46.643Z,9.27
2019-01-21T22:01:16.382Z,7.87
2019-01-21T22:03:49.149Z,6.70
2019-01-21T22:06:18.990Z,6.75
2019-01-21T22:08:48.930Z,7.70
2019-01-21T22:11:18.613Z,8.48
2019-01-21T22:13:48.639Z,7.60
2019-01-21T22:16:18.395Z,6.80
2019-01-21T22:18:48.131Z,8.80
2019-01-21T22:21:17.750Z,8.63
2019-01-21T22:23:47.442Z,8.65
2019-01-21T22:26:17.176Z,7.78
2019-01-21T22:28:47.458Z,5.47
2019-01-21T22:31:17.055Z,6.83
2019-01-21T22:33:46.990Z,8.25
2019-01-21T22:36:16.715Z,6.63
2019-01-21T22:38:46.523Z,9.40
2019-01-21T22:41:16.258Z,7.23
2019-01-21T22:43:46.151Z,8.40
2019-01-21T22:46:15.874Z,6.80
2019-01-21T22:48:45.651Z,11.17
2019-01-21T22:51:15.311Z,10.37
2019-01-21T22:53:45.190Z,8.13
2019-01-21T22:56:14.797Z,7.20
2019-01-21T22:58:44.575Z,7.53
2019-01-21T23:01:33.644Z,7.60
2019-01-21T23:04:03.347Z,8.40
2019-01-21T23:06:33.007Z,7.13
2019-01-21T23:09:03.681Z,7.10
2019-01-21T23:11:33.501Z,8.90
2019-01-21T23:14:03.554Z,8.90
2019-01-21T23:16:33.290Z,9.90
2019-01-21T23:19:03.156Z,11.87
2019-01-21T23:21:32.944Z,11.10
2019-01-21T23:24:02.675Z,10.10
2019-01-21T23:26:32.857Z,8.23
2019-01-21T23:29:02.735Z,9.20
2019-01-21T23:31:32.368Z,8.13
2019-01-21T23:34:01.997Z,8.60
2019-01-21T23:36:31.438Z,7.47
2019-01-21T23:39:01.406Z,9.43
2019-01-21T23:41:30.982Z,10.07
2019-01-21T23:44:00.382Z,9.87
2019-01-21T23:46:29.731Z,10.00
2019-01-21T23:48:59.199Z,9.57
2019-01-21T23:51:28.567Z,7.43
2019-01-21T23:53:57.971Z,8.40
2019-01-21T23:56:27.668Z,6.20
2019-01-21T23:58:57.243Z,6.73
